sensor_id;sensor_type;location;lat;lon;timestamp;P1;durP1;ratioP1;P2;durP2;ratioP2
75446;SDS011;64024;55.820;37.574;2023-04-21T00:01:03;7.78;;;3.97;;
75446;SDS011;64024;55.820;37.574;2023-04-21T00:03:32;7.05;;;4.10;;
75446;SDS011;64024;55.820;37.574;2023-04-21T00:06:02;6.80;;;4.13;;
75446;SDS011;64024;55.820;37.574;2023-04-21T00:08:31;5.70;;;4.40;;
75446;SDS011;64024;55.820;37.574;2023-04-21T00:10:57;6.43;;;4.80;;
75446;SDS011;64024;55.820;37.574;2023-04-21T00:13:23;6.18;;;4.50;;
75446;SDS011;64024;55.820;37.574;2023-04-21T00:15:49;6.35;;;4.05;;
75446;SDS011;64024;55.820;37.574;2023-04-21T00:18:15;8.93;;;3.95;;
75446;SDS011;64024;55.820;37.574;2023-04-21T00:20:42;7.07;;;4.80;;
75446;SDS011;64024;55.820;37.574;2023-04-21T00:23:09;5.78;;;3.95;;
75446;SDS011;64024;55.820;37.574;2023-04-21T00:25:35;7.72;;;3.92;;
75446;SDS011;64024;55.820;37.574;2023-04-21T00:28:01;6.20;;;4.47;;
75446;SDS011;64024;55.820;37.574;2023-04-21T00:30:27;4.72;;;4.07;;
75446;SDS011;64024;55.820;37.574;2023-04-21T00:32:53;4.95;;;3.80;;
75446;SDS011;64024;55.820;37.574;2023-04-21T00:35:18;9.02;;;4.32;;
75446;SDS011;64024;55.820;37.574;2023-04-21T00:37:44;5.97;;;4.13;;
75446;SDS011;64024;55.820;37.574;2023-04-21T00:40:10;4.38;;;3.58;;
75446;SDS011;64024;55.820;37.574;2023-04-21T00:42:36;5.68;;;3.45;;
75446;SDS011;64024;55.820;37.574;2023-04-21T00:45:02;5.53;;;3.80;;
75446;SDS011;64024;55.820;37.574;2023-04-21T00:47:28;6.38;;;4.28;;
75446;SDS011;64024;55.820;37.574;2023-04-21T00:49:55;4.75;;;3.30;;
75446;SDS011;64024;55.820;37.574;2023-04-21T00:52:22;4.10;;;3.55;;
75446;SDS011;64024;55.820;37.574;2023-04-21T00:54:51;5.15;;;4.03;;
75446;SDS011;64024;55.820;37.574;2023-04-21T00:57:17;6.00;;;3.30;;
75446;SDS011;64024;55.820;37.574;2023-04-21T00:59:44;5.22;;;3.63;;
75446;SDS011;64024;55.820;37.574;2023-04-21T01:02:10;4.95;;;3.45;;
75446;SDS011;64024;55.820;37.574;2023-04-21T01:04:36;4.68;;;3.42;;
75446;SDS011;64024;55.820;37.574;2023-04-21T01:07:04;5.63;;;3.60;;
75446;SDS011;64024;55.820;37.574;2023-04-21T01:09:32;6.18;;;3.78;;
75446;SDS011;64024;55.820;37.574;2023-04-21T01:12:01;5.05;;;3.55;;
75446;SDS011;64024;55.820;37.574;2023-04-21T01:14:28;4.30;;;3.35;;
75446;SDS011;64024;55.820;37.574;2023-04-21T01:16:54;6.10;;;4.07;;
75446;SDS011;64024;55.820;37.574;2023-04-21T01:19:21;4.95;;;3.05;;
75446;SDS011;64024;55.820;37.574;2023-04-21T01:21:47;4.20;;;3.35;;
75446;SDS011;64024;55.820;37.574;2023-04-21T01:24:13;5.57;;;3.40;;
75446;SDS011;64024;55.820;37.574;2023-04-21T01:26:38;4.95;;;3.70;;
75446;SDS011;64024;55.820;37.574;2023-04-21T01:29:04;6.43;;;3.20;;
75446;SDS011;64024;55.820;37.574;2023-04-21T01:31:30;4.20;;;2.80;;
75446;SDS011;64024;55.820;37.574;2023-04-21T01:33:56;4.65;;;3.35;;
75446;SDS011;64024;55.820;37.574;2023-04-21T01:36:21;4.28;;;3.03;;
75446;SDS011;64024;55.820;37.574;2023-04-21T01:38:47;3.80;;;3.25;;
75446;SDS011;64024;55.820;37.574;2023-04-21T01:41:13;4.88;;;3.60;;
75446;SDS011;64024;55.820;37.574;2023-04-21T01:43:39;4.63;;;2.97;;
75446;SDS011;64024;55.820;37.574;2023-04-21T01:46:04;5.30;;;3.10;;
75446;SDS011;64024;55.820;37.574;2023-04-21T01:48:31;6.68;;;3.10;;
75446;SDS011;64024;55.820;37.574;2023-04-21T01:50:56;4.57;;;2.97;;
75446;SDS011;64024;55.820;37.574;2023-04-21T01:53:22;4.88;;;3.42;;
75446;SDS011;64024;55.820;37.574;2023-04-21T01:55:48;4.43;;;3.33;;
75446;SDS011;64024;55.820;37.574;2023-04-21T01:58:14;5.18;;;3.05;;
75446;SDS011;64024;55.820;37.574;2023-04-21T02:00:39;5.22;;;3.58;;
75446;SDS011;64024;55.820;37.574;2023-04-21T02:03:05;3.97;;;2.95;;
75446;SDS011;64024;55.820;37.574;2023-04-21T02:05:31;4.03;;;3.13;;
75446;SDS011;64024;55.820;37.574;2023-04-21T02:07:56;4.30;;;3.33;;
75446;SDS011;64024;55.820;37.574;2023-04-21T02:10:22;4.82;;;2.85;;
75446;SDS011;64024;55.820;37.574;2023-04-21T02:12:47;3.90;;;2.78;;
75446;SDS011;64024;55.820;37.574;2023-04-21T02:15:13;4.93;;;3.70;;
75446;SDS011;64024;55.820;37.574;2023-04-21T02:17:39;5.82;;;3.40;;
75446;SDS011;64024;55.820;37.574;2023-04-21T02:20:07;5.13;;;3.55;;
75446;SDS011;64024;55.820;37.574;2023-04-21T02:22:33;4.57;;;3.35;;
75446;SDS011;64024;55.820;37.574;2023-04-21T02:24:59;6.20;;;3.13;;
75446;SDS011;64024;55.820;37.574;2023-04-21T02:27:25;6.68;;;3.22;;
75446;SDS011;64024;55.820;37.574;2023-04-21T02:29:50;3.28;;;2.70;;
75446;SDS011;64024;55.820;37.574;2023-04-21T02:32:16;3.08;;;2.70;;
75446;SDS011;64024;55.820;37.574;2023-04-21T02:34:41;3.55;;;2.90;;
75446;SDS011;64024;55.820;37.574;2023-04-21T02:37:07;4.35;;;3.60;;
75446;SDS011;64024;55.820;37.574;2023-04-21T02:39:33;5.75;;;2.92;;
75446;SDS011;64024;55.820;37.574;2023-04-21T02:41:59;4.38;;;2.88;;
75446;SDS011;64024;55.820;37.574;2023-04-21T02:44:26;4.72;;;2.72;;
75446;SDS011;64024;55.820;37.574;2023-04-21T02:46:51;4.05;;;2.75;;
75446;SDS011;64024;55.820;37.574;2023-04-21T02:49:17;3.67;;;3.20;;
75446;SDS011;64024;55.820;37.574;2023-04-21T02:51:42;3.70;;;2.63;;
75446;SDS011;64024;55.820;37.574;2023-04-21T02:54:08;4.18;;;3.13;;
75446;SDS011;64024;55.820;37.574;2023-04-21T02:56:35;4.38;;;2.90;;
75446;SDS011;64024;55.820;37.574;2023-04-21T02:59:00;4.40;;;3.03;;
75446;SDS011;64024;55.820;37.574;2023-04-21T03:01:26;7.45;;;3.40;;
75446;SDS011;64024;55.820;37.574;2023-04-21T03:03:51;6.25;;;3.38;;
75446;SDS011;64024;55.820;37.574;2023-04-21T03:06:17;4.35;;;3.15;;
75446;SDS011;64024;55.820;37.574;2023-04-21T03:08:42;4.85;;;3.08;;
75446;SDS011;64024;55.820;37.574;2023-04-21T03:11:08;6.30;;;2.95;;
75446;SDS011;64024;55.820;37.574;2023-04-21T03:13:34;5.38;;;3.38;;
75446;SDS011;64024;55.820;37.574;2023-04-21T03:16:00;5.78;;;3.53;;
75446;SDS011;64024;55.820;37.574;2023-04-21T03:18:25;4.45;;;3.33;;
75446;SDS011;64024;55.820;37.574;2023-04-21T03:20:52;5.28;;;3.00;;
75446;SDS011;64024;55.820;37.574;2023-04-21T03:23:23;4.25;;;2.70;;
75446;SDS011;64024;55.820;37.574;2023-04-21T03:25:49;5.00;;;3.55;;
75446;SDS011;64024;55.820;37.574;2023-04-21T03:28:15;4.85;;;2.72;;
75446;SDS011;64024;55.820;37.574;2023-04-21T03:30:41;3.80;;;2.88;;
75446;SDS011;64024;55.820;37.574;2023-04-21T03:33:06;4.65;;;3.10;;
75446;SDS011;64024;55.820;37.574;2023-04-21T03:35:32;5.35;;;3.88;;
75446;SDS011;64024;55.820;37.574;2023-04-21T03:37:58;6.93;;;3.92;;
75446;SDS011;64024;55.820;37.574;2023-04-21T03:40:24;5.63;;;3.45;;
75446;SDS011;64024;55.820;37.574;2023-04-21T03:42:50;7.05;;;4.25;;
75446;SDS011;64024;55.820;37.574;2023-04-21T03:45:15;5.40;;;3.72;;
75446;SDS011;64024;55.820;37.574;2023-04-21T03:47:46;7.35;;;3.60;;
75446;SDS011;64024;55.820;37.574;2023-04-21T03:50:12;5.78;;;4.00;;
75446;SDS011;64024;55.820;37.574;2023-04-21T03:52:38;8.35;;;3.50;;
75446;SDS011;64024;55.820;37.574;2023-04-21T03:55:04;7.90;;;3.90;;
75446;SDS011;64024;55.820;37.574;2023-04-21T03:57:33;10.02;;;4.20;;
75446;SDS011;64024;55.820;37.574;2023-04-21T03:59:58;10.68;;;4.95;;
75446;SDS011;64024;55.820;37.574;2023-04-21T04:02:24;7.13;;;4.68;;
75446;SDS011;64024;55.820;37.574;2023-04-21T04:04:49;8.35;;;4.30;;
75446;SDS011;64024;55.820;37.574;2023-04-21T04:07:15;5.97;;;4.40;;
75446;SDS011;64024;55.820;37.574;2023-04-21T04:09:41;5.95;;;4.75;;
75446;SDS011;64024;55.820;37.574;2023-04-21T04:12:07;10.15;;;5.50;;
75446;SDS011;64024;55.820;37.574;2023-04-21T04:14:33;9.32;;;5.13;;
75446;SDS011;64024;55.820;37.574;2023-04-21T04:16:59;6.68;;;4.55;;
75446;SDS011;64024;55.820;37.574;2023-04-21T04:19:33;7.00;;;4.50;;
75446;SDS011;64024;55.820;37.574;2023-04-21T04:21:59;7.68;;;4.40;;
75446;SDS011;64024;55.820;37.574;2023-04-21T04:24:25;6.82;;;4.57;;
75446;SDS011;64024;55.820;37.574;2023-04-21T04:26:51;6.18;;;4.80;;
75446;SDS011;64024;55.820;37.574;2023-04-21T04:29:19;6.10;;;4.50;;
75446;SDS011;64024;55.820;37.574;2023-04-21T04:31:46;7.82;;;4.93;;
75446;SDS011;64024;55.820;37.574;2023-04-21T04:34:12;9.05;;;4.40;;
75446;SDS011;64024;55.820;37.574;2023-04-21T04:36:39;9.68;;;4.88;;
75446;SDS011;64024;55.820;37.574;2023-04-21T04:39:06;5.95;;;4.32;;
75446;SDS011;64024;55.820;37.574;2023-04-21T04:41:34;7.30;;;4.50;;
75446;SDS011;64024;55.820;37.574;2023-04-21T04:44:00;7.18;;;5.13;;
75446;SDS011;64024;55.820;37.574;2023-04-21T04:46:28;6.55;;;4.53;;
75446;SDS011;64024;55.820;37.574;2023-04-21T04:48:54;6.13;;;4.30;;
75446;SDS011;64024;55.820;37.574;2023-04-21T04:51:20;5.55;;;4.22;;
75446;SDS011;64024;55.820;37.574;2023-04-21T04:53:47;7.53;;;4.32;;
75446;SDS011;64024;55.820;37.574;2023-04-21T04:56:12;5.78;;;4.53;;
75446;SDS011;64024;55.820;37.574;2023-04-21T04:58:38;5.78;;;4.72;;
75446;SDS011;64024;55.820;37.574;2023-04-21T05:01:14;6.80;;;4.57;;
75446;SDS011;64024;55.820;37.574;2023-04-21T05:03:40;4.80;;;4.13;;
75446;SDS011;64024;55.820;37.574;2023-04-21T05:06:07;5.15;;;3.92;;
75446;SDS011;64024;55.820;37.574;2023-04-21T05:08:34;6.00;;;5.00;;
75446;SDS011;64024;55.820;37.574;2023-04-21T05:11:00;8.98;;;5.18;;
75446;SDS011;64024;55.820;37.574;2023-04-21T05:13:26;4.93;;;4.53;;
75446;SDS011;64024;55.820;37.574;2023-04-21T05:15:58;6.18;;;4.28;;
75446;SDS011;64024;55.820;37.574;2023-04-21T05:18:26;6.00;;;4.75;;
75446;SDS011;64024;55.820;37.574;2023-04-21T05:20:51;6.03;;;4.25;;
75446;SDS011;64024;55.820;37.574;2023-04-21T05:23:17;5.38;;;4.32;;
75446;SDS011;64024;55.820;37.574;2023-04-21T05:25:43;5.22;;;4.20;;
75446;SDS011;64024;55.820;37.574;2023-04-21T05:28:09;5.07;;;4.57;;
75446;SDS011;64024;55.820;37.574;2023-04-21T05:30:34;5.78;;;4.28;;
75446;SDS011;64024;55.820;37.574;2023-04-21T05:33:01;5.70;;;4.63;;
75446;SDS011;64024;55.820;37.574;2023-04-21T05:35:29;5.13;;;4.00;;
75446;SDS011;64024;55.820;37.574;2023-04-21T05:37:55;4.38;;;3.72;;
75446;SDS011;64024;55.820;37.574;2023-04-21T05:40:21;5.40;;;4.07;;
75446;SDS011;64024;55.820;37.574;2023-04-21T05:42:46;6.68;;;4.40;;
75446;SDS011;64024;55.820;37.574;2023-04-21T05:45:12;6.25;;;4.53;;
75446;SDS011;64024;55.820;37.574;2023-04-21T05:47:38;5.07;;;4.50;;
75446;SDS011;64024;55.820;37.574;2023-04-21T05:50:04;4.78;;;4.07;;
75446;SDS011;64024;55.820;37.574;2023-04-21T05:54:56;4.80;;;4.28;;
75446;SDS011;64024;55.820;37.574;2023-04-21T05:57:26;6.70;;;4.38;;
75446;SDS011;64024;55.820;37.574;2023-04-21T05:59:51;4.32;;;3.90;;
75446;SDS011;64024;55.820;37.574;2023-04-21T06:02:17;5.78;;;5.18;;
75446;SDS011;64024;55.820;37.574;2023-04-21T06:04:43;5.28;;;4.78;;
75446;SDS011;64024;55.820;37.574;2023-04-21T06:07:09;6.00;;;5.35;;
75446;SDS011;64024;55.820;37.574;2023-04-21T06:09:40;5.35;;;4.78;;
75446;SDS011;64024;55.820;37.574;2023-04-21T06:12:06;6.32;;;5.03;;
75446;SDS011;64024;55.820;37.574;2023-04-21T06:14:32;7.22;;;5.00;;
75446;SDS011;64024;55.820;37.574;2023-04-21T06:16:58;6.22;;;5.30;;
75446;SDS011;64024;55.820;37.574;2023-04-21T06:19:23;6.72;;;5.38;;
75446;SDS011;64024;55.820;37.574;2023-04-21T06:21:49;6.20;;;4.97;;
75446;SDS011;64024;55.820;37.574;2023-04-21T06:24:15;7.15;;;5.97;;
75446;SDS011;64024;55.820;37.574;2023-04-21T06:26:48;7.78;;;5.43;;
75446;SDS011;64024;55.820;37.574;2023-04-21T06:29:14;8.52;;;6.13;;
75446;SDS011;64024;55.820;37.574;2023-04-21T06:31:40;6.55;;;5.95;;
75446;SDS011;64024;55.820;37.574;2023-04-21T06:34:06;6.00;;;5.40;;
75446;SDS011;64024;55.820;37.574;2023-04-21T06:36:32;8.10;;;5.75;;
75446;SDS011;64024;55.820;37.574;2023-04-21T06:38:57;6.80;;;5.90;;
75446;SDS011;64024;55.820;37.574;2023-04-21T06:41:23;5.95;;;5.35;;
75446;SDS011;64024;55.820;37.574;2023-04-21T06:43:49;6.38;;;5.47;;
75446;SDS011;64024;55.820;37.574;2023-04-21T06:46:15;6.20;;;5.55;;
75446;SDS011;64024;55.820;37.574;2023-04-21T06:48:41;6.45;;;5.75;;
75446;SDS011;64024;55.820;37.574;2023-04-21T06:51:06;6.88;;;6.15;;
75446;SDS011;64024;55.820;37.574;2023-04-21T06:53:32;7.57;;;5.90;;
75446;SDS011;64024;55.820;37.574;2023-04-21T06:55:58;8.52;;;6.47;;
75446;SDS011;64024;55.820;37.574;2023-04-21T06:58:23;5.55;;;5.05;;
75446;SDS011;64024;55.820;37.574;2023-04-21T07:00:49;6.72;;;6.03;;
75446;SDS011;64024;55.820;37.574;2023-04-21T07:03:15;7.95;;;5.40;;
75446;SDS011;64024;55.820;37.574;2023-04-21T07:05:41;6.47;;;5.70;;
75446;SDS011;64024;55.820;37.574;2023-04-21T07:08:07;8.60;;;4.50;;
75446;SDS011;64024;55.820;37.574;2023-04-21T07:10:32;6.03;;;4.45;;
75446;SDS011;64024;55.820;37.574;2023-04-21T07:12:58;6.05;;;4.50;;
75446;SDS011;64024;55.820;37.574;2023-04-21T07:15:23;6.82;;;4.28;;
75446;SDS011;64024;55.820;37.574;2023-04-21T07:17:49;5.68;;;3.47;;
75446;SDS011;64024;55.820;37.574;2023-04-21T07:20:15;5.53;;;3.67;;
75446;SDS011;64024;55.820;37.574;2023-04-21T07:25:08;3.45;;;2.78;;
75446;SDS011;64024;55.820;37.574;2023-04-21T07:27:34;7.57;;;2.15;;
75446;SDS011;64024;55.820;37.574;2023-04-21T07:30:01;5.50;;;2.80;;
75446;SDS011;64024;55.820;37.574;2023-04-21T07:32:30;3.85;;;1.92;;
75446;SDS011;64024;55.820;37.574;2023-04-21T07:34:56;4.28;;;1.52;;
75446;SDS011;64024;55.820;37.574;2023-04-21T07:37:22;2.42;;;1.27;;
75446;SDS011;64024;55.820;37.574;2023-04-21T07:39:48;2.42;;;1.30;;
75446;SDS011;64024;55.820;37.574;2023-04-21T07:42:14;4.10;;;3.53;;
75446;SDS011;64024;55.820;37.574;2023-04-21T07:44:40;4.38;;;3.42;;
75446;SDS011;64024;55.820;37.574;2023-04-21T07:47:05;5.32;;;3.00;;
75446;SDS011;64024;55.820;37.574;2023-04-21T07:49:31;4.15;;;2.80;;
75446;SDS011;64024;55.820;37.574;2023-04-21T07:51:57;3.15;;;2.60;;
75446;SDS011;64024;55.820;37.574;2023-04-21T07:54:22;5.32;;;1.70;;
75446;SDS011;64024;55.820;37.574;2023-04-21T07:56:48;8.50;;;2.58;;
75446;SDS011;64024;55.820;37.574;2023-04-21T07:59:14;4.88;;;2.63;;
75446;SDS011;64024;55.820;37.574;2023-04-21T08:01:39;2.47;;;2.28;;
75446;SDS011;64024;55.820;37.574;2023-04-21T08:04:05;2.60;;;2.40;;
75446;SDS011;64024;55.820;37.574;2023-04-21T08:06:31;2.88;;;2.08;;
75446;SDS011;64024;55.820;37.574;2023-04-21T08:08:57;2.88;;;2.22;;
75446;SDS011;64024;55.820;37.574;2023-04-21T08:11:23;3.58;;;1.83;;
75446;SDS011;64024;55.820;37.574;2023-04-21T08:13:48;3.00;;;2.03;;
75446;SDS011;64024;55.820;37.574;2023-04-21T08:16:14;3.05;;;2.15;;
75446;SDS011;64024;55.820;37.574;2023-04-21T08:18:40;2.95;;;1.83;;
75446;SDS011;64024;55.820;37.574;2023-04-21T08:21:06;2.00;;;1.50;;
75446;SDS011;64024;55.820;37.574;2023-04-21T08:23:32;2.55;;;1.30;;
75446;SDS011;64024;55.820;37.574;2023-04-21T08:25:59;3.80;;;2.30;;
75446;SDS011;64024;55.820;37.574;2023-04-21T08:28:26;2.28;;;1.10;;
75446;SDS011;64024;55.820;37.574;2023-04-21T08:30:51;2.78;;;0.85;;
75446;SDS011;64024;55.820;37.574;2023-04-21T08:33:17;1.88;;;1.20;;
75446;SDS011;64024;55.820;37.574;2023-04-21T08:35:43;2.47;;;1.70;;
75446;SDS011;64024;55.820;37.574;2023-04-21T08:38:08;3.90;;;2.28;;
75446;SDS011;64024;55.820;37.574;2023-04-21T08:40:35;2.47;;;1.95;;
75446;SDS011;64024;55.820;37.574;2023-04-21T08:43:05;2.65;;;1.80;;
75446;SDS011;64024;55.820;37.574;2023-04-21T08:45:31;3.03;;;1.85;;
75446;SDS011;64024;55.820;37.574;2023-04-21T08:47:58;3.25;;;1.83;;
75446;SDS011;64024;55.820;37.574;2023-04-21T08:50:26;3.05;;;1.38;;
75446;SDS011;64024;55.820;37.574;2023-04-21T08:52:54;1.67;;;1.02;;
75446;SDS011;64024;55.820;37.574;2023-04-21T08:55:28;2.25;;;1.10;;
75446;SDS011;64024;55.820;37.574;2023-04-21T08:57:54;3.08;;;1.63;;
75446;SDS011;64024;55.820;37.574;2023-04-21T09:00:20;2.20;;;1.38;;
75446;SDS011;64024;55.820;37.574;2023-04-21T09:02:53;4.53;;;1.08;;
75446;SDS011;64024;55.820;37.574;2023-04-21T09:05:24;1.70;;;1.10;;
75446;SDS011;64024;55.820;37.574;2023-04-21T09:07:52;1.83;;;1.10;;
75446;SDS011;64024;55.820;37.574;2023-04-21T09:10:32;2.38;;;1.77;;
75446;SDS011;64024;55.820;37.574;2023-04-21T09:12:58;2.28;;;1.20;;
75446;SDS011;64024;55.820;37.574;2023-04-21T09:15:36;1.70;;;0.90;;
75446;SDS011;64024;55.820;37.574;2023-04-21T09:18:04;2.45;;;0.90;;
75446;SDS011;64024;55.820;37.574;2023-04-21T09:20:36;1.73;;;1.13;;
75446;SDS011;64024;55.820;37.574;2023-04-21T09:23:06;1.73;;;1.02;;
75446;SDS011;64024;55.820;37.574;2023-04-21T09:25:32;2.20;;;1.50;;
75446;SDS011;64024;55.820;37.574;2023-04-21T09:27:59;3.28;;;1.83;;
75446;SDS011;64024;55.820;37.574;2023-04-21T09:30:25;2.67;;;1.33;;
75446;SDS011;64024;55.820;37.574;2023-04-21T09:32:54;3.92;;;1.50;;
75446;SDS011;64024;55.820;37.574;2023-04-21T09:35:22;2.17;;;1.20;;
75446;SDS011;64024;55.820;37.574;2023-04-21T09:37:52;2.83;;;1.17;;
75446;SDS011;64024;55.820;37.574;2023-04-21T09:40:18;2.00;;;1.20;;
75446;SDS011;64024;55.820;37.574;2023-04-21T09:42:44;2.75;;;1.05;;
75446;SDS011;64024;55.820;37.574;2023-04-21T09:45:10;2.22;;;0.93;;
75446;SDS011;64024;55.820;37.574;2023-04-21T09:47:40;2.92;;;1.92;;
75446;SDS011;64024;55.820;37.574;2023-04-21T09:50:07;2.85;;;2.53;;
75446;SDS011;64024;55.820;37.574;2023-04-21T09:52:36;2.83;;;1.33;;
75446;SDS011;64024;55.820;37.574;2023-04-21T09:55:05;2.25;;;1.42;;
75446;SDS011;64024;55.820;37.574;2023-04-21T09:57:37;1.83;;;0.70;;
75446;SDS011;64024;55.820;37.574;2023-04-21T10:00:07;1.55;;;0.75;;
75446;SDS011;64024;55.820;37.574;2023-04-21T10:02:34;3.50;;;1.52;;
75446;SDS011;64024;55.820;37.574;2023-04-21T10:05:05;2.50;;;1.60;;
75446;SDS011;64024;55.820;37.574;2023-04-21T10:07:31;1.90;;;1.27;;
75446;SDS011;64024;55.820;37.574;2023-04-21T10:09:58;3.50;;;2.10;;
75446;SDS011;64024;55.820;37.574;2023-04-21T10:12:25;2.70;;;1.60;;
75446;SDS011;64024;55.820;37.574;2023-04-21T10:14:52;2.25;;;1.23;;
75446;SDS011;64024;55.820;37.574;2023-04-21T10:17:21;2.88;;;1.42;;
75446;SDS011;64024;55.820;37.574;2023-04-21T10:19:53;2.97;;;1.27;;
75446;SDS011;64024;55.820;37.574;2023-04-21T10:24:57;2.90;;;1.02;;
75446;SDS011;64024;55.820;37.574;2023-04-21T10:27:34;2.35;;;1.30;;
75446;SDS011;64024;55.820;37.574;2023-04-21T10:30:18;2.42;;;1.20;;
75446;SDS011;64024;55.820;37.574;2023-04-21T10:32:48;1.98;;;1.13;;
75446;SDS011;64024;55.820;37.574;2023-04-21T10:35:56;1.55;;;1.00;;
75446;SDS011;64024;55.820;37.574;2023-04-21T10:38:40;2.88;;;1.85;;
75446;SDS011;64024;55.820;37.574;2023-04-21T10:41:29;2.20;;;1.10;;
75446;SDS011;64024;55.820;37.574;2023-04-21T10:43:58;1.73;;;1.02;;
75446;SDS011;64024;55.820;37.574;2023-04-21T10:46:31;2.05;;;1.73;;
75446;SDS011;64024;55.820;37.574;2023-04-21T10:54:42;2.55;;;1.08;;
75446;SDS011;64024;55.820;37.574;2023-04-21T10:57:30;0.88;;;0.60;;
75446;SDS011;64024;55.820;37.574;2023-04-21T10:59:57;3.13;;;0.90;;
75446;SDS011;64024;55.820;37.574;2023-04-21T11:02:24;1.50;;;0.60;;
75446;SDS011;64024;55.820;37.574;2023-04-21T11:04:50;1.90;;;0.95;;
75446;SDS011;64024;55.820;37.574;2023-04-21T11:07:18;1.90;;;0.80;;
75446;SDS011;64024;55.820;37.574;2023-04-21T11:09:45;2.35;;;1.40;;
75446;SDS011;64024;55.820;37.574;2023-04-21T11:12:16;3.22;;;1.02;;
75446;SDS011;64024;55.820;37.574;2023-04-21T11:14:43;1.83;;;1.40;;
75446;SDS011;64024;55.820;37.574;2023-04-21T11:17:12;1.88;;;0.80;;
75446;SDS011;64024;55.820;37.574;2023-04-21T11:19:40;2.60;;;1.40;;
75446;SDS011;64024;55.820;37.574;2023-04-21T11:22:06;1.88;;;1.02;;
75446;SDS011;64024;55.820;37.574;2023-04-21T11:24:32;2.47;;;1.77;;
75446;SDS011;64024;55.820;37.574;2023-04-21T11:26:58;3.03;;;1.48;;
75446;SDS011;64024;55.820;37.574;2023-04-21T11:29:27;1.98;;;1.00;;
75446;SDS011;64024;55.820;37.574;2023-04-21T11:31:56;1.30;;;0.73;;
75446;SDS011;64024;55.820;37.574;2023-04-21T11:34:25;2.15;;;1.35;;
75446;SDS011;64024;55.820;37.574;2023-04-21T11:36:51;1.00;;;0.47;;
75446;SDS011;64024;55.820;37.574;2023-04-21T11:39:17;2.53;;;0.95;;
75446;SDS011;64024;55.820;37.574;2023-04-21T11:41:45;1.95;;;1.40;;
75446;SDS011;64024;55.820;37.574;2023-04-21T11:46:44;2.17;;;0.80;;
75446;SDS011;64024;55.820;37.574;2023-04-21T11:49:11;2.78;;;0.68;;
75446;SDS011;64024;55.820;37.574;2023-04-21T11:51:40;1.50;;;0.70;;
75446;SDS011;64024;55.820;37.574;2023-04-21T11:54:07;1.30;;;0.70;;
75446;SDS011;64024;55.820;37.574;2023-04-21T11:56:38;0.80;;;0.47;;
75446;SDS011;64024;55.820;37.574;2023-04-21T11:59:11;0.93;;;0.50;;
75446;SDS011;64024;55.820;37.574;2023-04-21T12:01:44;0.82;;;0.40;;
75446;SDS011;64024;55.820;37.574;2023-04-21T12:04:14;2.75;;;0.60;;
75446;SDS011;64024;55.820;37.574;2023-04-21T12:06:44;0.90;;;0.40;;
75446;SDS011;64024;55.820;37.574;2023-04-21T12:09:18;1.30;;;0.88;;
75446;SDS011;64024;55.820;37.574;2023-04-21T12:12:03;1.02;;;0.47;;
75446;SDS011;64024;55.820;37.574;2023-04-21T12:14:30;3.25;;;1.80;;
75446;SDS011;64024;55.820;37.574;2023-04-21T12:16:57;3.15;;;1.00;;
75446;SDS011;64024;55.820;37.574;2023-04-21T12:19:44;1.55;;;0.82;;
75446;SDS011;64024;55.820;37.574;2023-04-21T12:22:16;2.22;;;0.70;;
75446;SDS011;64024;55.820;37.574;2023-04-21T12:24:42;1.92;;;1.25;;
75446;SDS011;64024;55.820;37.574;2023-04-21T12:27:09;2.20;;;0.98;;
75446;SDS011;64024;55.820;37.574;2023-04-21T12:29:36;1.10;;;0.75;;
75446;SDS011;64024;55.820;37.574;2023-04-21T12:32:03;1.52;;;0.80;;
75446;SDS011;64024;55.820;37.574;2023-04-21T12:34:30;2.00;;;1.38;;
75446;SDS011;64024;55.820;37.574;2023-04-21T12:36:56;2.88;;;1.33;;
75446;SDS011;64024;55.820;37.574;2023-04-21T12:39:22;1.40;;;0.68;;
75446;SDS011;64024;55.820;37.574;2023-04-21T12:41:47;1.98;;;1.02;;
75446;SDS011;64024;55.820;37.574;2023-04-21T12:44:14;1.90;;;1.10;;
75446;SDS011;64024;55.820;37.574;2023-04-21T12:46:40;1.63;;;1.15;;
75446;SDS011;64024;55.820;37.574;2023-04-21T12:49:06;2.53;;;1.27;;
75446;SDS011;64024;55.820;37.574;2023-04-21T12:51:33;1.35;;;0.63;;
75446;SDS011;64024;55.820;37.574;2023-04-21T12:53:59;2.17;;;0.80;;
75446;SDS011;64024;55.820;37.574;2023-04-21T12:56:25;2.28;;;1.00;;
75446;SDS011;64024;55.820;37.574;2023-04-21T12:58:52;3.30;;;1.75;;
75446;SDS011;64024;55.820;37.574;2023-04-21T13:01:19;1.48;;;0.95;;
75446;SDS011;64024;55.820;37.574;2023-04-21T13:03:46;3.92;;;0.98;;
75446;SDS011;64024;55.820;37.574;2023-04-21T13:06:12;1.95;;;1.00;;
75446;SDS011;64024;55.820;37.574;2023-04-21T13:08:38;2.22;;;1.40;;
75446;SDS011;64024;55.820;37.574;2023-04-21T13:11:04;2.05;;;1.20;;
75446;SDS011;64024;55.820;37.574;2023-04-21T13:13:30;1.83;;;1.23;;
75446;SDS011;64024;55.820;37.574;2023-04-21T13:15:56;1.73;;;1.08;;
75446;SDS011;64024;55.820;37.574;2023-04-21T13:18:22;1.90;;;1.60;;
75446;SDS011;64024;55.820;37.574;2023-04-21T13:20:47;2.92;;;1.52;;
75446;SDS011;64024;55.820;37.574;2023-04-21T13:23:13;1.95;;;1.00;;
75446;SDS011;64024;55.820;37.574;2023-04-21T13:25:40;7.55;;;1.50;;
75446;SDS011;64024;55.820;37.574;2023-04-21T13:28:06;1.60;;;0.88;;
75446;SDS011;64024;55.820;37.574;2023-04-21T13:30:35;1.73;;;1.10;;
75446;SDS011;64024;55.820;37.574;2023-04-21T13:33:01;1.25;;;0.70;;
75446;SDS011;64024;55.820;37.574;2023-04-21T13:35:27;2.03;;;0.80;;
75446;SDS011;64024;55.820;37.574;2023-04-21T13:37:53;1.23;;;0.70;;
75446;SDS011;64024;55.820;37.574;2023-04-21T13:40:19;2.10;;;0.77;;
75446;SDS011;64024;55.820;37.574;2023-04-21T13:42:45;1.80;;;1.08;;
75446;SDS011;64024;55.820;37.574;2023-04-21T13:45:11;2.15;;;1.42;;
75446;SDS011;64024;55.820;37.574;2023-04-21T13:47:37;2.08;;;0.80;;
75446;SDS011;64024;55.820;37.574;2023-04-21T13:50:02;1.30;;;0.70;;
75446;SDS011;64024;55.820;37.574;2023-04-21T13:52:29;1.50;;;0.68;;
75446;SDS011;64024;55.820;37.574;2023-04-21T13:54:55;0.70;;;0.40;;
75446;SDS011;64024;55.820;37.574;2023-04-21T13:57:20;1.73;;;0.60;;
75446;SDS011;64024;55.820;37.574;2023-04-21T13:59:46;1.40;;;0.68;;
75446;SDS011;64024;55.820;37.574;2023-04-21T14:02:12;3.47;;;1.55;;
75446;SDS011;64024;55.820;37.574;2023-04-21T14:04:38;4.85;;;1.98;;
75446;SDS011;64024;55.820;37.574;2023-04-21T14:07:04;5.03;;;2.03;;
75446;SDS011;64024;55.820;37.574;2023-04-21T14:09:32;2.92;;;1.20;;
75446;SDS011;64024;55.820;37.574;2023-04-21T14:11:58;2.15;;;1.45;;
75446;SDS011;64024;55.820;37.574;2023-04-21T14:14:23;3.45;;;2.50;;
75446;SDS011;64024;55.820;37.574;2023-04-21T14:16:49;2.67;;;1.05;;
75446;SDS011;64024;55.820;37.574;2023-04-21T14:19:16;2.28;;;0.80;;
75446;SDS011;64024;55.820;37.574;2023-04-21T14:21:41;2.38;;;0.73;;
75446;SDS011;64024;55.820;37.574;2023-04-21T14:24:07;1.45;;;0.80;;
75446;SDS011;64024;55.820;37.574;2023-04-21T14:26:33;1.30;;;0.77;;
75446;SDS011;64024;55.820;37.574;2023-04-21T14:29:00;1.10;;;0.60;;
75446;SDS011;64024;55.820;37.574;2023-04-21T14:31:26;1.10;;;0.60;;
75446;SDS011;64024;55.820;37.574;2023-04-21T14:33:52;1.95;;;0.80;;
75446;SDS011;64024;55.820;37.574;2023-04-21T14:36:18;3.35;;;1.48;;
75446;SDS011;64024;55.820;37.574;2023-04-21T14:38:44;2.75;;;1.08;;
75446;SDS011;64024;55.820;37.574;2023-04-21T14:41:10;3.90;;;1.40;;
75446;SDS011;64024;55.820;37.574;2023-04-21T14:43:36;1.98;;;1.10;;
75446;SDS011;64024;55.820;37.574;2023-04-21T14:46:02;2.47;;;1.52;;
75446;SDS011;64024;55.820;37.574;2023-04-21T14:48:28;2.78;;;1.88;;